createdAt,value
2019-04-09T00:00:48.158Z,0.00
2019-04-09T00:01:48.862Z,0.00
2019-04-09T00:02:48.718Z,0.00
2019-04-09T00:03:47.921Z,0.00
2019-04-09T00:04:47.862Z,0.00
2019-04-09T00:05:48.082Z,0.00
2019-04-09T00:06:47.924Z,0.00
2019-04-09T00:07:59.677Z,0.00
2019-04-09T00:08:47.777Z,0.00
2019-04-09T00:09:47.642Z,0.00
2019-04-09T00:10:47.369Z,0.00
2019-04-09T00:11:47.670Z,0.00
2019-04-09T00:12:47.213Z,0.00
2019-04-09T00:13:47.131Z,0.00
2019-04-09T00:14:47.053Z,0.00
2019-04-09T00:15:47.796Z,0.00
2019-04-09T00:16:47.794Z,0.00
2019-04-09T00:17:46.818Z,0.00
2019-04-09T00:18:46.774Z,0.00
2019-04-09T00:19:47.746Z,0.00
2019-04-09T00:20:47.007Z,0.00
2019-04-09T00:21:46.504Z,0.00
2019-04-09T00:22:46.426Z,0.00
2019-04-09T00:23:46.750Z,0.00
2019-04-09T00:24:46.264Z,0.00
2019-04-09T00:25:46.777Z,0.00
2019-04-09T00:26:51.762Z,0.00
2019-04-09T00:27:46.027Z,0.00
2019-04-09T00:28:45.945Z,0.00
2019-04-09T00:29:46.273Z,0.00
2019-04-09T00:30:45.788Z,0.00
2019-04-09T00:31:45.713Z,0.00
2019-04-09T00:32:45.632Z,0.00
2019-04-09T00:33:46.402Z,0.00
2019-04-09T00:34:46.273Z,0.00
2019-04-09T00:35:46.406Z,0.00
2019-04-09T00:36:46.384Z,0.00
2019-04-09T00:37:45.501Z,0.00
2019-04-09T00:38:45.439Z,0.00
2019-04-09T00:39:45.367Z,0.00
2019-04-09T00:40:45.045Z,0.00
2019-04-09T00:41:44.922Z,0.00
2019-04-09T00:42:45.536Z,0.00
2019-04-09T00:43:45.542Z,0.00
2019-04-09T00:44:44.748Z,0.00
2019-04-09T00:45:44.654Z,0.00
2019-04-09T00:46:47.353Z,0.00
2019-04-09T00:47:44.449Z,0.00
2019-04-09T00:48:44.446Z,0.00
2019-04-09T00:49:44.295Z,0.00
2019-04-09T00:50:44.204Z,0.00
2019-04-09T00:51:44.918Z,0.00
2019-04-09T00:52:44.786Z,0.00
2019-04-09T00:53:44.655Z,0.00
2019-04-09T00:54:43.893Z,0.00
2019-04-09T00:55:43.815Z,0.00
2019-04-09T00:56:56.379Z,0.00
2019-04-09T00:57:43.659Z,0.00
2019-04-09T00:58:43.579Z,0.00
2019-04-09T00:59:43.499Z,0.00
2019-04-09T01:00:44.725Z,0.00
2019-04-09T01:01:44.245Z,0.00
2019-04-09T01:02:43.262Z,0.00
2019-04-09T01:03:43.184Z,0.00
2019-04-09T01:04:43.107Z,0.00
2019-04-09T01:05:43.933Z,0.00
2019-04-09T01:06:43.358Z,0.00
2019-04-09T01:07:43.354Z,0.00
2019-04-09T01:08:43.540Z,0.00
2019-04-09T01:09:43.492Z,0.00
2019-04-09T01:10:43.046Z,0.00
2019-04-09T01:11:43.573Z,0.00
2019-04-09T01:12:43.001Z,0.00
2019-04-09T01:13:42.635Z,0.00
2019-04-09T01:14:42.315Z,0.00
2019-04-09T01:15:42.746Z,0.00
2019-04-09T01:16:42.413Z,0.00
2019-04-09T01:17:42.089Z,0.00
2019-04-09T01:18:41.996Z,0.00
2019-04-09T01:19:42.402Z,0.00
2019-04-09T01:20:42.459Z,0.00
2019-04-09T01:21:41.759Z,0.00
2019-04-09T01:22:41.685Z,0.00
2019-04-09T01:23:42.645Z,0.00
2019-04-09T01:24:41.795Z,0.00
2019-04-09T01:25:41.489Z,0.00
2019-04-09T01:26:41.362Z,0.00
2019-04-09T01:27:41.501Z,0.00
2019-04-09T01:28:41.208Z,0.00
2019-04-09T01:29:41.127Z,0.00
2019-04-09T01:30:41.050Z,0.00
2019-04-09T01:31:41.851Z,0.00
2019-04-09T01:32:41.757Z,0.00
2019-04-09T01:33:40.829Z,0.00
2019-04-09T01:34:40.814Z,0.00
2019-04-09T01:35:40.840Z,0.00
2019-04-09T01:36:41.645Z,0.00
2019-04-09T01:37:41.413Z,0.00
2019-04-09T01:38:49.091Z,0.00
2019-04-09T01:40:44.828Z,0.00
2019-04-09T01:41:44.733Z,0.00
2019-04-09T01:42:45.198Z,0.00
2019-04-09T01:43:44.954Z,0.00
2019-04-09T01:44:44.497Z,0.00
2019-04-09T01:45:44.416Z,0.00
2019-04-09T01:46:44.337Z,0.00
2019-04-09T01:47:44.921Z,0.00
2019-04-09T01:48:44.827Z,0.00
2019-04-09T01:49:44.104Z,0.00
2019-04-09T01:50:45.754Z,0.00
2019-04-09T01:51:44.967Z,0.00
2019-04-09T01:52:44.810Z,0.00
2019-04-09T01:53:43.779Z,0.00
2019-04-09T01:54:44.130Z,0.00
2019-04-09T01:55:43.982Z,0.00
2019-04-09T01:56:43.545Z,0.00
2019-04-09T01:57:43.923Z,0.00
2019-04-09T01:58:43.389Z,0.00
2019-04-09T01:59:43.310Z,0.00
2019-04-09T02:00:43.236Z,0.00
2019-04-09T02:01:43.284Z,0.00
2019-04-09T02:02:43.989Z,0.00
2019-04-09T02:03:43.382Z,0.00
2019-04-09T02:04:42.913Z,0.00
2019-04-09T02:05:43.530Z,0.00
2019-04-09T02:06:43.347Z,0.00
2019-04-09T02:07:43.256Z,0.00
2019-04-09T02:08:42.611Z,0.00
2019-04-09T02:09:42.517Z,0.00
2019-04-09T02:10:43.129Z,0.00
2019-04-09T02:11:42.612Z,0.00
2019-04-09T02:12:42.692Z,0.00
2019-04-09T02:13:42.646Z,0.00
2019-04-09T02:14:42.339Z,0.00
2019-04-09T02:15:42.041Z,0.00
2019-04-09T02:16:41.961Z,0.00
2019-04-09T02:17:42.516Z,0.00
2019-04-09T02:18:42.478Z,0.00
2019-04-09T02:19:41.725Z,0.00
2019-04-09T02:20:41.680Z,0.00
2019-04-09T02:21:41.564Z,0.00
2019-04-09T02:22:41.491Z,0.00
2019-04-09T02:23:41.738Z,0.00
2019-04-09T02:24:41.324Z,0.00
2019-04-09T02:25:41.408Z,0.00
2019-04-09T02:26:41.169Z,0.00
2019-04-09T02:27:44.929Z,0.00
2019-04-09T02:28:41.811Z,0.00
2019-04-09T02:29:40.989Z,0.00
2019-04-09T02:30:41.789Z,0.00
2019-04-09T02:31:40.779Z,0.00
2019-04-09T02:32:40.821Z,0.00
2019-04-09T02:33:41.257Z,0.00
2019-04-09T02:34:40.534Z,0.00
2019-04-09T02:35:41.211Z,0.00
2019-04-09T02:36:41.620Z,0.00
2019-04-09T02:37:41.182Z,0.00
2019-04-09T02:38:40.534Z,0.00
2019-04-09T02:39:40.135Z,0.00
2019-04-09T02:40:40.425Z,0.00
2019-04-09T02:41:39.980Z,0.00
2019-04-09T02:42:39.899Z,0.00
2019-04-09T02:43:40.635Z,0.00
2019-04-09T02:44:39.741Z,0.00
2019-04-09T02:45:39.662Z,0.00
2019-04-09T02:46:39.623Z,0.00
2019-04-09T02:47:41.092Z,0.00
2019-04-09T02:48:39.508Z,0.00
2019-04-09T02:49:39.394Z,0.00
2019-04-09T02:50:39.266Z,0.00
2019-04-09T02:51:39.191Z,0.00
2019-04-09T02:52:40.092Z,0.00
2019-04-09T02:53:39.029Z,0.00
2019-04-09T02:54:39.924Z,0.00
2019-04-09T02:55:38.899Z,0.00
2019-04-09T02:56:38.868Z,0.00
2019-04-09T02:57:49.093Z,0.00
2019-04-09T02:58:38.866Z,0.00
2019-04-09T02:59:38.643Z,0.00
2019-04-09T03:00:38.465Z,0.00
2019-04-09T03:01:38.678Z,0.00
2019-04-09T03:02:38.543Z,0.00
2019-04-09T03:03:38.235Z,0.00
2019-04-09T03:04:38.157Z,0.00
2019-04-09T03:05:38.537Z,0.00
2019-04-09T03:06:38.564Z,0.00
2019-04-09T03:07:37.916Z,0.00
2019-04-09T03:08:37.841Z,0.00
2019-04-09T03:09:37.754Z,0.00
2019-04-09T03:10:38.417Z,0.00
2019-04-09T03:11:38.132Z,0.00
2019-04-09T03:12:37.519Z,0.00
2019-04-09T03:13:37.439Z,0.00
2019-04-09T03:14:38.281Z,0.00
2019-04-09T03:15:38.033Z,0.00
2019-04-09T03:16:37.878Z,0.00
2019-04-09T03:17:37.126Z,0.00
2019-04-09T03:18:37.795Z,0.00
2019-04-09T03:19:36.963Z,0.00
2019-04-09T03:20:36.886Z,0.00
2019-04-09T03:21:37.726Z,0.00
2019-04-09T03:22:37.737Z,0.00
2019-04-09T03:23:37.543Z,0.00
2019-04-09T03:24:36.566Z,0.00
2019-04-09T03:25:36.836Z,0.00
2019-04-09T03:26:36.606Z,0.00
2019-04-09T03:27:36.615Z,0.00
2019-04-09T03:28:37.160Z,0.00
2019-04-09T03:29:36.173Z,0.00
2019-04-09T03:30:36.923Z,0.00
2019-04-09T03:31:37.039Z,0.00
2019-04-09T03:32:35.948Z,0.00
2019-04-09T03:33:36.239Z,0.00
2019-04-09T03:34:37.407Z,0.00
2019-04-09T03:35:35.887Z,0.00
2019-04-09T03:36:35.613Z,0.00
2019-04-09T03:37:35.532Z,0.00
2019-04-09T03:38:35.455Z,0.00
2019-04-09T03:39:36.026Z,0.00
2019-04-09T03:40:35.811Z,0.00
2019-04-09T03:41:35.214Z,0.00
2019-04-09T03:42:35.139Z,0.00
2019-04-09T03:43:35.061Z,0.00
2019-04-09T03:44:35.613Z,0.00
2019-04-09T03:45:35.211Z,0.00
2019-04-09T03:46:34.829Z,0.00
2019-04-09T03:47:35.150Z,0.00
2019-04-09T03:48:35.517Z,0.00
2019-04-09T03:49:34.581Z,0.00
2019-04-09T03:50:35.443Z,0.00
2019-04-09T03:51:35.501Z,0.00
2019-04-09T03:52:34.339Z,0.00
2019-04-09T03:53:34.269Z,0.00
2019-04-09T03:54:34.982Z,0.00
2019-04-09T03:55:34.282Z,0.00
2019-04-09T03:56:34.353Z,0.00
2019-04-09T03:57:33.944Z,0.00
2019-04-09T03:58:33.872Z,0.00
2019-04-09T03:59:33.780Z,0.00
2019-04-09T04:00:34.419Z,0.00
2019-04-09T04:01:33.626Z,0.00
2019-04-09T04:02:34.058Z,0.00
2019-04-09T04:03:34.185Z,0.00
2019-04-09T04:04:34.070Z,0.00
2019-04-09T04:05:33.335Z,0.00
2019-04-09T04:06:34.274Z,0.00
2019-04-09T04:07:33.478Z,0.00
2019-04-09T04:08:33.509Z,0.00
2019-04-09T04:09:32.987Z,0.00
2019-04-09T04:10:33.832Z,0.00
2019-04-09T04:11:33.611Z,0.00
2019-04-09T04:12:33.073Z,0.00
2019-04-09T04:13:33.155Z,0.00
2019-04-09T04:14:32.593Z,0.00
2019-04-09T04:15:32.625Z,0.00
2019-04-09T04:16:32.583Z,4.00
2019-04-09T04:17:32.354Z,0.00
2019-04-09T04:18:32.280Z,4.00
2019-04-09T04:19:33.314Z,4.00
2019-04-09T04:20:32.113Z,4.00
2019-04-09T04:21:32.038Z,4.00
2019-04-09T04:22:31.959Z,4.00
2019-04-09T04:23:31.877Z,8.00
2019-04-09T04:24:32.544Z,4.00
2019-04-09T04:25:32.603Z,8.00
2019-04-09T04:26:32.097Z,8.00
2019-04-09T04:27:31.892Z,12.00
2019-04-09T04:28:36.070Z,12.00
2019-04-09T04:29:31.428Z,12.00
2019-04-09T04:30:32.061Z,12.00
2019-04-09T04:31:31.241Z,16.00
2019-04-09T04:32:31.411Z,20.00
2019-04-09T04:33:31.478Z,24.00
2019-04-09T04:34:31.005Z,28.00
2019-04-09T04:35:30.927Z,28.00
2019-04-09T04:36:30.998Z,32.00
2019-04-09T04:37:31.206Z,40.00
2019-04-09T04:38:31.295Z,44.00
2019-04-09T04:39:30.614Z,48.00
2019-04-09T04:40:32.019Z,52.00
2019-04-09T04:41:30.446Z,56.00
2019-04-09T04:42:30.368Z,64.00
2019-04-09T04:43:30.939Z,72.00
2019-04-09T04:44:30.639Z,76.00
2019-04-09T04:45:30.462Z,80.00
2019-04-09T04:46:30.045Z,92.00
2019-04-09T04:47:30.165Z,100.00
2019-04-09T04:48:29.885Z,116.00
2019-04-09T04:49:29.804Z,128.00
2019-04-09T04:50:29.726Z,148.00
2019-04-09T04:51:29.659Z,164.00
2019-04-09T04:52:30.012Z,180.00
2019-04-09T04:53:29.498Z,196.00
2019-04-09T04:54:30.053Z,208.00
2019-04-09T04:55:29.332Z,220.00
2019-04-09T04:56:29.943Z,232.00
2019-04-09T04:57:29.460Z,240.00
2019-04-09T04:58:39.400Z,248.00
2019-04-09T04:59:29.014Z,256.00
2019-04-09T05:00:29.090Z,256.00
2019-04-09T05:01:28.855Z,256.00
2019-04-09T05:02:28.777Z,268.00
2019-04-09T05:03:28.695Z,276.00
2019-04-09T05:04:29.535Z,284.00
2019-04-09T05:05:28.888Z,296.00
2019-04-09T05:06:29.565Z,304.00
2019-04-09T05:07:37.646Z,316.00
2019-04-09T05:08:28.391Z,320.00
2019-04-09T05:09:28.225Z,324.00
2019-04-09T05:10:28.139Z,320.00
2019-04-09T05:11:28.598Z,316.00
2019-04-09T05:12:27.976Z,300.00
2019-04-09T05:13:28.375Z,288.00
2019-04-09T05:14:27.822Z,292.00
2019-04-09T05:15:27.781Z,300.00
2019-04-09T05:16:28.421Z,312.00
2019-04-09T05:17:27.584Z,332.00
2019-04-09T05:18:27.499Z,360.00
2019-04-09T05:19:28.395Z,376.00
2019-04-09T05:20:27.342Z,392.00
2019-04-09T05:21:28.197Z,404.00
2019-04-09T05:22:29.463Z,424.00
2019-04-09T05:23:27.665Z,444.00
2019-04-09T05:24:27.056Z,460.00
2019-04-09T05:25:27.280Z,484.00
2019-04-09T05:26:26.868Z,516.00
2019-04-09T05:27:26.799Z,548.00
2019-04-09T05:28:26.842Z,564.00
2019-04-09T05:29:27.505Z,576.00
2019-04-09T05:30:26.848Z,584.00
2019-04-09T05:31:27.275Z,580.00
2019-04-09T05:32:26.383Z,584.00
2019-04-09T05:33:26.725Z,604.00
2019-04-09T05:34:26.264Z,616.00
2019-04-09T05:35:27.300Z,608.00
2019-04-09T05:36:26.071Z,620.00
2019-04-09T05:37:26.944Z,620.00
2019-04-09T05:38:25.912Z,628.00
2019-04-09T05:39:26.173Z,640.00
2019-04-09T05:40:25.748Z,664.00
2019-04-09T05:41:25.674Z,692.00
2019-04-09T05:42:25.590Z,720.00
2019-04-09T05:43:25.508Z,768.00
2019-04-09T05:44:26.097Z,800.00
2019-04-09T05:45:25.625Z,852.00
2019-04-09T05:46:25.833Z,920.00
2019-04-09T05:47:26.185Z,992.00
2019-04-09T05:48:25.503Z,1056.00
2019-04-09T05:49:25.037Z,1092.00
2019-04-09T05:50:25.715Z,1088.00
2019-04-09T05:51:25.600Z,1076.00
2019-04-09T05:52:24.840Z,1092.00
2019-04-09T05:53:24.722Z,1104.00
2019-04-09T05:54:25.180Z,1116.00
2019-04-09T05:55:24.701Z,1068.00
2019-04-09T05:56:25.604Z,1044.00
2019-04-09T05:57:24.405Z,1064.00
2019-04-09T05:58:24.321Z,1132.00
2019-04-09T05:59:24.243Z,1212.00
2019-04-09T06:00:24.162Z,1292.00
2019-04-09T06:01:24.229Z,1364.00
2019-04-09T06:02:24.005Z,1436.00
2019-04-09T06:03:24.088Z,1516.00
2019-04-09T06:04:23.842Z,1616.00
2019-04-09T06:05:24.681Z,1712.00
2019-04-09T06:06:23.691Z,1820.00
2019-04-09T06:07:23.608Z,1900.00
2019-04-09T06:08:25.868Z,1932.00
2019-04-09T06:09:23.452Z,1908.00
2019-04-09T06:10:24.052Z,1880.00
2019-04-09T06:11:23.419Z,1884.00
2019-04-09T06:12:23.206Z,1912.00
2019-04-09T06:13:23.132Z,1948.00
2019-04-09T06:14:23.152Z,2028.00
2019-04-09T06:15:23.196Z,2148.00
2019-04-09T06:16:22.891Z,2284.00
2019-04-09T06:17:23.194Z,2420.00
2019-04-09T06:18:23.826Z,2488.00
2019-04-09T06:19:23.131Z,2536.00
2019-04-09T06:20:22.575Z,2572.00
2019-04-09T06:21:26.714Z,2632.00
2019-04-09T06:22:23.293Z,2712.00
2019-04-09T06:23:22.338Z,2748.00
2019-04-09T06:24:22.793Z,2760.00
2019-04-09T06:25:22.947Z,2704.00
2019-04-09T06:26:22.415Z,2600.00
2019-04-09T06:27:22.393Z,2620.00
2019-04-09T06:28:21.945Z,2732.00
2019-04-09T06:29:23.587Z,2876.00
2019-04-09T06:30:21.787Z,2948.00
2019-04-09T06:31:22.295Z,2948.00
2019-04-09T06:32:22.130Z,2924.00
2019-04-09T06:33:21.549Z,2956.00
2019-04-09T06:34:22.289Z,2996.00
2019-04-09T06:35:21.491Z,2976.00
2019-04-09T06:36:21.310Z,2924.00
2019-04-09T06:37:21.236Z,2892.00
2019-04-09T06:38:21.163Z,2960.00
2019-04-09T06:39:21.076Z,3024.00
2019-04-09T06:40:22.096Z,3020.00
2019-04-09T06:41:21.345Z,2968.00
2019-04-09T06:42:21.274Z,2904.00
2019-04-09T06:43:21.254Z,2832.00
2019-04-09T06:44:20.998Z,2692.00
2019-04-09T06:45:20.600Z,2560.00
2019-04-09T06:46:20.518Z,2432.00
2019-04-09T06:47:20.443Z,2252.00
2019-04-09T06:48:20.376Z,2120.00
2019-04-09T06:49:20.289Z,2044.00
2019-04-09T06:50:20.800Z,2020.00
2019-04-09T06:51:30.527Z,2064.00
2019-04-09T06:52:20.138Z,2140.00
2019-04-09T06:53:19.968Z,2148.00
2019-04-09T06:54:19.932Z,2140.00
2019-04-09T06:55:20.803Z,2180.00
2019-04-09T06:56:19.827Z,2220.00
2019-04-09T06:57:19.650Z,2204.00
2019-04-09T06:58:20.511Z,2212.00
2019-04-09T06:59:28.539Z,2264.00
2019-04-09T07:00:21.984Z,2220.00
2019-04-09T07:01:20.389Z,2216.00
2019-04-09T07:02:19.699Z,2212.00
2019-04-09T07:03:19.180Z,2208.00
2019-04-09T07:04:19.098Z,2188.00
2019-04-09T07:05:19.020Z,2208.00
2019-04-09T07:06:19.781Z,2264.00
2019-04-09T07:07:19.672Z,2260.00
2019-04-09T07:08:18.783Z,2272.00
2019-04-09T07:09:21.012Z,2300.00
2019-04-09T07:10:18.626Z,2344.00
2019-04-09T07:11:21.206Z,2432.00
2019-04-09T07:12:18.469Z,2460.00
2019-04-09T07:13:18.386Z,2544.00
2019-04-09T07:14:18.310Z,2652.00
2019-04-09T07:15:19.411Z,2772.00
2019-04-09T07:16:19.139Z,2908.00
2019-04-09T07:17:18.373Z,3072.00
2019-04-09T07:18:18.909Z,3256.00
2019-04-09T07:19:18.844Z,3424.00
2019-04-09T07:20:19.948Z,3588.00
2019-04-09T07:21:17.757Z,3732.00
2019-04-09T07:22:17.960Z,3904.00
2019-04-09T07:23:17.692Z,3996.00
2019-04-09T07:24:18.186Z,4048.00
2019-04-09T07:25:17.630Z,4100.00
2019-04-09T07:26:18.480Z,4004.00
2019-04-09T07:27:20.672Z,3976.00
2019-04-09T07:28:17.204Z,4000.00
2019-04-09T07:29:17.620Z,3864.00
2019-04-09T07:30:21.453Z,3848.00
2019-04-09T07:31:16.967Z,3796.00
2019-04-09T07:32:16.892Z,3812.00
2019-04-09T07:33:18.947Z,3852.00
2019-04-09T07:34:18.100Z,3896.00
2019-04-09T07:35:16.660Z,3900.00
2019-04-09T07:36:17.025Z,3848.00
2019-04-09T07:37:16.495Z,3720.00
2019-04-09T07:38:18.260Z,3620.00
2019-04-09T07:39:26.545Z,3588.00
2019-04-09T07:41:22.477Z,4048.00
2019-04-09T07:42:20.384Z,4116.00
2019-04-09T07:44:28.306Z,4404.00
2019-04-09T07:45:25.225Z,4508.00
2019-04-09T07:47:31.446Z,4792.00
2019-04-09T07:48:30.011Z,4800.00
2019-04-09T07:50:20.411Z,4956.00
2019-04-09T07:51:21.176Z,5020.00
2019-04-09T07:52:22.286Z,5108.00
2019-04-09T07:53:20.168Z,5268.00
2019-04-09T07:54:20.090Z,5308.00
2019-04-09T07:55:23.259Z,5324.00
2019-04-09T07:56:19.931Z,5228.00
2019-04-09T07:57:19.885Z,5072.00
2019-04-09T07:58:19.778Z,5000.00
2019-04-09T07:59:24.493Z,4980.00
2019-04-09T08:00:24.532Z,4984.00
2019-04-09T08:01:19.671Z,4976.00
2019-04-09T08:02:21.856Z,4976.00
2019-04-09T08:03:19.384Z,4996.00
2019-04-09T08:04:21.102Z,4960.00
2019-04-09T08:05:19.652Z,4952.00
2019-04-09T08:06:19.821Z,4952.00
2019-04-09T08:07:21.592Z,4964.00
2019-04-09T08:08:19.132Z,4972.00
2019-04-09T08:09:19.320Z,4964.00
2019-04-09T08:10:18.875Z,4928.00
2019-04-09T08:11:18.762Z,4880.00
2019-04-09T08:12:18.698Z,4860.00
2019-04-09T08:13:19.553Z,4720.00
2019-04-09T08:14:18.813Z,4588.00
2019-04-09T08:15:18.453Z,4444.00
2019-04-09T08:16:19.062Z,4296.00
2019-04-09T08:17:19.189Z,4180.00
2019-04-09T08:18:20.565Z,4192.00
2019-04-09T08:19:20.218Z,4328.00
2019-04-09T08:20:28.310Z,4360.00
2019-04-09T08:21:18.099Z,4172.00
2019-04-09T08:22:18.397Z,3936.00
2019-04-09T08:23:19.473Z,3792.00
2019-04-09T08:24:18.245Z,3756.00
2019-04-09T08:25:17.667Z,3824.00
2019-04-09T08:26:17.590Z,3768.00
2019-04-09T08:27:17.617Z,3728.00
2019-04-09T08:28:20.685Z,3748.00
2019-04-09T08:29:17.354Z,3748.00
2019-04-09T08:30:24.298Z,3728.00
2019-04-09T08:31:20.279Z,3776.00
2019-04-09T08:32:20.090Z,3752.00
2019-04-09T08:33:20.417Z,3784.00
2019-04-09T08:34:16.969Z,3632.00
2019-04-09T08:35:17.760Z,4096.00
2019-04-09T08:36:17.100Z,4264.00
2019-04-09T08:37:19.903Z,4612.00
2019-04-09T08:38:16.654Z,4896.00
2019-04-09T08:39:16.718Z,5132.00
2019-04-09T08:40:16.574Z,5320.00
2019-04-09T08:41:19.407Z,5304.00
2019-04-09T08:42:16.924Z,5260.00
2019-04-09T08:43:16.270Z,5224.00
2019-04-09T08:44:18.470Z,5300.00
2019-04-09T08:45:20.470Z,5344.00
2019-04-09T08:46:16.032Z,5368.00
2019-04-09T08:47:16.834Z,5552.00
2019-04-09T08:48:16.083Z,5556.00
2019-04-09T08:49:17.793Z,5428.00
2019-04-09T08:50:16.687Z,5268.00
2019-04-09T08:51:15.642Z,5080.00
2019-04-09T08:52:15.559Z,4964.00
2019-04-09T08:53:17.278Z,4848.00
2019-04-09T08:54:19.004Z,4784.00
2019-04-09T08:55:15.810Z,4752.00
2019-04-09T08:56:15.620Z,4760.00
2019-04-09T08:57:16.811Z,4752.00
2019-04-09T08:58:15.378Z,4736.00
2019-04-09T08:59:15.592Z,4768.00
2019-04-09T09:00:20.925Z,4860.00
2019-04-09T09:01:41.817Z,4880.00
2019-04-09T09:02:22.930Z,5020.00
2019-04-09T09:03:15.481Z,5276.00
2019-04-09T09:04:16.226Z,5512.00
2019-04-09T09:05:17.996Z,5688.00
2019-04-09T09:06:17.170Z,5716.00
2019-04-09T09:07:16.789Z,5952.00
2019-04-09T09:08:14.678Z,6256.00
2019-04-09T09:09:14.249Z,6440.00
2019-04-09T09:10:18.069Z,6572.00
2019-04-09T09:11:14.080Z,6684.00
2019-04-09T09:12:14.853Z,6748.00
2019-04-09T09:13:17.513Z,6828.00
2019-04-09T09:14:13.848Z,6920.00
2019-04-09T09:15:14.803Z,7040.00
2019-04-09T09:16:13.696Z,7284.00
2019-04-09T09:17:13.616Z,7496.00
2019-04-09T09:18:13.862Z,7700.00
2019-04-09T09:19:14.179Z,7792.00
2019-04-09T09:20:14.221Z,7940.00
2019-04-09T09:21:19.664Z,7932.00
2019-04-09T09:22:14.297Z,7952.00
2019-04-09T09:23:13.368Z,8048.00
2019-04-09T09:24:16.534Z,8080.00
2019-04-09T09:25:13.735Z,8108.00
2019-04-09T09:26:13.632Z,8064.00
2019-04-09T09:27:14.987Z,7844.00
2019-04-09T09:28:12.764Z,7472.00
2019-04-09T09:29:13.370Z,7432.00
2019-04-09T09:30:13.533Z,7496.00
2019-04-09T09:31:18.034Z,7488.00
2019-04-09T09:32:13.293Z,7424.00
2019-04-09T09:33:13.617Z,7308.00
2019-04-09T09:34:12.302Z,7236.00
2019-04-09T09:35:12.222Z,7204.00
2019-04-09T09:36:12.149Z,7184.00
2019-04-09T09:37:15.657Z,7164.00
2019-04-09T09:38:13.039Z,7340.00
2019-04-09T09:39:12.460Z,7456.00
2019-04-09T09:40:11.839Z,7736.00
2019-04-09T09:41:12.453Z,7956.00
2019-04-09T09:42:11.686Z,8132.00
2019-04-09T09:43:14.380Z,8088.00
2019-04-09T09:44:12.266Z,8004.00
2019-04-09T09:45:12.382Z,7840.00
2019-04-09T09:46:12.419Z,7848.00
2019-04-09T09:47:13.625Z,7872.00
2019-04-09T09:48:11.330Z,8008.00
2019-04-09T09:49:11.151Z,8124.00
2019-04-09T09:50:15.827Z,8420.00
2019-04-09T09:51:13.025Z,8516.00
2019-04-09T09:52:11.124Z,8468.00
2019-04-09T09:53:11.386Z,8360.00
2019-04-09T09:54:10.764Z,8428.00
2019-04-09T09:55:15.142Z,8456.00
2019-04-09T09:56:10.925Z,8428.00
2019-04-09T09:57:13.226Z,8612.00
2019-04-09T09:58:13.416Z,8828.00
2019-04-09T09:59:10.427Z,8964.00
2019-04-09T10:00:12.358Z,9152.00
2019-04-09T10:01:20.468Z,9228.00
2019-04-09T10:02:10.234Z,9340.00
2019-04-09T10:03:11.027Z,9516.00
2019-04-09T10:04:10.002Z,9636.00
2019-04-09T10:05:10.758Z,9836.00
2019-04-09T10:06:14.712Z,10292.00
2019-04-09T10:07:10.675Z,10704.00
2019-04-09T10:08:15.325Z,11344.00
2019-04-09T10:09:10.066Z,11668.00
2019-04-09T10:10:09.548Z,11916.00
2019-04-09T10:11:09.470Z,12108.00
2019-04-09T10:12:10.567Z,12288.00
2019-04-09T10:13:09.316Z,12512.00
2019-04-09T10:14:09.901Z,12200.00
2019-04-09T10:15:14.917Z,12000.00
2019-04-09T10:16:11.678Z,11792.00
2019-04-09T10:17:09.050Z,11436.00
2019-04-09T10:18:09.444Z,11344.00
2019-04-09T10:19:12.522Z,11336.00
2019-04-09T10:20:09.704Z,11620.00
2019-04-09T10:21:10.820Z,12272.00
2019-04-09T10:22:09.088Z,12608.00
2019-04-09T10:23:08.950Z,12832.00
2019-04-09T10:24:16.748Z,13068.00
2019-04-09T10:25:08.408Z,13208.00
2019-04-09T10:26:13.709Z,13284.00
2019-04-09T10:27:12.156Z,13272.00
2019-04-09T10:28:08.645Z,13272.00
2019-04-09T10:29:14.543Z,13204.00
2019-04-09T10:30:09.350Z,13044.00
2019-04-09T10:31:19.119Z,12900.00
2019-04-09T10:32:11.085Z,12412.00
2019-04-09T10:33:12.837Z,12300.00
2019-04-09T10:34:08.110Z,12252.00
2019-04-09T10:35:10.099Z,12196.00
2019-04-09T10:36:08.336Z,12392.00
2019-04-09T10:37:13.908Z,12208.00
2019-04-09T10:38:08.116Z,12008.00
2019-04-09T10:39:07.563Z,11752.00
2019-04-09T10:40:09.367Z,10960.00
2019-04-09T10:41:18.509Z,10224.00
2019-04-09T10:42:09.285Z,10332.00
2019-04-09T10:43:11.403Z,11836.00
2019-04-09T10:44:07.710Z,13312.00
2019-04-09T10:45:06.922Z,13980.00
2019-04-09T10:46:06.835Z,13892.00
2019-04-09T10:47:09.990Z,13912.00
2019-04-09T10:48:07.286Z,13084.00
2019-04-09T10:49:06.606Z,12404.00
2019-04-09T10:50:06.531Z,11660.00
2019-04-09T10:51:07.855Z,12472.00
2019-04-09T10:52:06.381Z,12792.00
2019-04-09T10:53:07.633Z,11748.00
2019-04-09T10:54:06.814Z,11660.00
2019-04-09T10:55:06.156Z,11780.00
2019-04-09T10:56:06.085Z,12252.00
2019-04-09T10:57:09.071Z,11416.00
2019-04-09T10:58:06.892Z,10940.00
2019-04-09T10:59:06.739Z,11288.00
2019-04-09T11:00:07.682Z,13392.00
2019-04-09T11:01:09.744Z,14772.00
2019-04-09T11:02:05.635Z,14260.00
2019-04-09T11:03:06.253Z,13160.00
2019-04-09T11:04:07.859Z,13160.00
2019-04-09T11:05:05.406Z,13372.00
2019-04-09T11:06:05.521Z,13268.00
2019-04-09T11:07:06.328Z,13548.00
2019-04-09T11:08:06.612Z,13936.00
2019-04-09T11:09:05.622Z,14852.00
2019-04-09T11:10:06.560Z,13748.00
2019-04-09T11:11:04.963Z,15964.00
2019-04-09T11:12:04.892Z,16172.00
2019-04-09T11:13:05.614Z,16672.00
2019-04-09T11:14:08.743Z,17504.00
2019-04-09T11:15:05.399Z,17536.00
2019-04-09T11:16:06.014Z,17440.00
2019-04-09T11:17:06.536Z,17664.00
2019-04-09T11:18:08.570Z,17504.00
2019-04-09T11:19:04.368Z,18144.00
2019-04-09T11:20:04.672Z,20320.00
2019-04-09T11:21:08.530Z,23136.00
2019-04-09T11:22:04.151Z,26624.00
2019-04-09T11:23:04.935Z,34048.00
2019-04-09T11:24:04.107Z,41984.00
2019-04-09T11:25:04.310Z,54432.00
2019-04-09T11:26:07.496Z,57760.00
2019-04-09T11:27:03.789Z,58144.00
2019-04-09T11:28:05.758Z,56288.00
2019-04-09T11:29:04.618Z,57664.00
2019-04-09T11:30:03.671Z,58848.00
2019-04-09T11:31:04.224Z,62624.00
2019-04-09T11:32:06.966Z,63232.00
2019-04-09T11:33:04.468Z,59456.00
2019-04-09T11:34:03.559Z,61632.00
2019-04-09T11:35:04.012Z,63136.00
2019-04-09T11:36:03.260Z,62816.00
2019-04-09T11:37:03.103Z,65344.00
2019-04-09T11:38:03.402Z,63936.00
2019-04-09T11:39:03.839Z,63840.00
2019-04-09T11:40:03.067Z,64640.00
2019-04-09T11:41:03.387Z,66528.00
2019-04-09T11:42:03.168Z,65856.00
2019-04-09T11:43:03.674Z,66272.00
2019-04-09T11:44:02.799Z,64864.00
2019-04-09T11:45:02.581Z,63648.00
2019-04-09T11:46:02.515Z,63904.00
2019-04-09T11:47:04.795Z,67872.00
2019-04-09T11:49:02.537Z,64928.00
2019-04-09T11:50:02.282Z,24320.00
2019-04-09T11:51:02.198Z,60512.00
2019-04-09T11:52:02.136Z,64928.00
2019-04-09T11:53:02.073Z,65088.00
2019-04-09T11:54:02.019Z,64928.00
2019-04-09T11:55:03.037Z,63456.00
2019-04-09T11:56:01.965Z,59808.00
2019-04-09T11:57:01.826Z,61440.00
2019-04-09T11:58:01.761Z,63936.00
2019-04-09T11:59:02.632Z,63584.00
2019-04-09T12:00:01.861Z,64096.00
2019-04-09T12:01:01.975Z,64064.00
2019-04-09T12:02:05.856Z,66400.00
2019-04-09T12:03:01.462Z,69216.00
2019-04-09T12:04:01.388Z,69280.00
2019-04-09T12:05:02.600Z,69952.00
2019-04-09T12:06:01.268Z,69472.00
2019-04-09T12:07:01.924Z,65952.00
2019-04-09T12:08:02.266Z,68032.00
2019-04-09T12:09:01.364Z,69504.00
2019-04-09T12:10:01.760Z,67776.00
2019-04-09T12:11:00.964Z,70624.00
2019-04-09T12:12:01.145Z,71776.00
2019-04-09T12:13:00.840Z,67968.00
2019-04-09T12:14:00.778Z,30912.00
2019-04-09T12:15:00.723Z,23520.00
2019-04-09T12:16:01.347Z,15192.00
2019-04-09T12:17:00.597Z,15880.00
2019-04-09T12:18:01.777Z,21824.00
2019-04-09T12:19:00.475Z,68160.00
2019-04-09T12:20:06.383Z,46368.00
2019-04-09T12:21:00.511Z,63072.00
2019-04-09T12:22:00.289Z,29632.00
2019-04-09T12:23:00.228Z,23744.00
2019-04-09T12:24:00.164Z,13732.00
2019-04-09T12:25:00.103Z,13652.00
2019-04-09T12:26:00.198Z,13668.00
2019-04-09T12:27:01.214Z,14776.00
2019-04-09T12:28:00.412Z,15308.00
2019-04-09T12:29:09.526Z,21600.00
2019-04-09T12:29:59.784Z,48736.00
2019-04-09T12:30:59.759Z,47936.00
2019-04-09T12:32:12.879Z,33216.00
2019-04-09T12:33:03.042Z,25184.00
2019-04-09T12:33:59.998Z,22176.00